Time;durP1;ratioP1;P1;durP2;ratioP2;P2;SDS_P1;SDS_P2;PMS_P1;PMS_P2;Temp;Humidity;BMP_temperature;BMP_pressure;BME280_temperature;BME280_humidity;BME280_pressure;Samples;Min_cycle;Max_cycle;Signal;HPM_P1;HPM_P2
2023/07/28 00:01:33;;;;;;;5.37;4.17;;;;;;;;;;5134132;27;20281;-51
2023/07/28 00:03:59;;;;;;;5.43;3.67;;;;;;;;;;5133975;27;20312;-49
2023/07/28 00:06:25;;;;;;;4.30;3.90;;;;;;;;;;5134425;27;20254;-51
2023/07/28 00:08:51;;;;;;;5.70;4.50;;;;;;;;;;5133985;27;20217;-50
2023/07/28 00:11:17;;;;;;;5.00;4.50;;;;;;;;;;5134161;27;20186;-49
2023/07/28 00:13:44;;;;;;;8.10;6.93;;;;;;;;;;5134038;27;20259;-50
2023/07/28 00:16:11;;;;;;;5.20;4.70;;;;;;;;;;5133991;27;20196;-50
2023/07/28 00:18:37;;;;;;;5.97;4.40;;;;;;;;;;5134033;27;20683;-49
2023/07/28 00:21:05;;;;;;;6.57;4.83;;;;;;;;;;5133703;27;20244;-51
2023/07/28 00:23:31;;;;;;;7.30;4.70;;;;;;;;;;5133821;27;20256;-50
2023/07/28 00:25:57;;;;;;;5.20;4.57;;;;;;;;;;5133617;27;20238;-50
2023/07/28 00:28:23;;;;;;;5.13;4.60;;;;;;;;;;5133541;27;20668;-50
2023/07/28 00:30:49;;;;;;;6.80;4.73;;;;;;;;;;5133686;27;20190;-50
2023/07/28 00:33:17;;;;;;;5.40;4.33;;;;;;;;;;5133516;27;20234;-50
2023/07/28 00:35:43;;;;;;;4.70;4.30;;;;;;;;;;5133744;27;20296;-49
2023/07/28 00:38:09;;;;;;;5.97;5.30;;;;;;;;;;5133271;27;20272;-50
2023/07/28 00:40:35;;;;;;;5.27;4.37;;;;;;;;;;5133497;27;20202;-49
2023/07/28 00:43:01;;;;;;;7.10;5.80;;;;;;;;;;5133133;27;20231;-49
2023/07/28 00:45:28;;;;;;;9.80;5.27;;;;;;;;;;5133503;27;20197;-49
2023/07/28 00:47:55;;;;;;;7.97;5.10;;;;;;;;;;5133296;27;20228;-49
2023/07/28 00:50:22;;;;;;;5.73;4.67;;;;;;;;;;5133182;27;20254;-50
2023/07/28 00:52:49;;;;;;;6.00;5.37;;;;;;;;;;5133185;27;20205;-50
2023/07/28 00:55:15;;;;;;;8.23;5.73;;;;;;;;;;5132824;27;20201;-50
2023/07/28 00:57:41;;;;;;;6.83;5.40;;;;;;;;;;5133387;27;20222;-50
2023/07/28 01:00:07;;;;;;;6.40;5.80;;;;;;;;;;5133028;27;20618;-50
2023/07/28 01:02:33;;;;;;;7.77;5.33;;;;;;;;;;5132837;27;20194;-50
2023/07/28 01:04:59;;;;;;;6.40;5.47;;;;;;;;;;5132916;27;20595;-49
2023/07/28 01:07:29;;;;;;;6.60;5.70;;;;;;;;;;5132220;27;20288;-49
2023/07/28 01:10:00;;;;;;;6.90;6.20;;;;;;;;;;5132784;27;20217;-50
2023/07/28 01:12:26;;;;;;;10.03;6.40;;;;;;;;;;5133064;27;20196;-50
2023/07/28 01:14:52;;;;;;;8.63;6.07;;;;;;;;;;5132805;27;20708;-50
2023/07/28 01:17:19;;;;;;;6.87;6.07;;;;;;;;;;5132601;27;20289;-50
2023/07/28 01:19:45;;;;;;;7.10;6.33;;;;;;;;;;5132724;27;20255;-50
2023/07/28 01:22:22;;;;;;;7.20;6.00;;;;;;;;;;5132669;27;20189;-49
2023/07/28 01:24:52;;;;;;;10.63;6.77;;;;;;;;;;5132188;27;20606;-50
2023/07/28 01:27:19;;;;;;;7.40;6.70;;;;;;;;;;5132540;27;20296;-49
2023/07/28 01:29:45;;;;;;;7.90;6.13;;;;;;;;;;5132337;27;20198;-50
2023/07/28 01:32:11;;;;;;;12.20;6.40;;;;;;;;;;5132360;27;20643;-50
2023/07/28 01:34:37;;;;;;;7.83;6.70;;;;;;;;;;5132304;27;20612;-50
2023/07/28 01:37:03;;;;;;;8.17;5.97;;;;;;;;;;5131953;27;20206;-49
2023/07/28 01:39:29;;;;;;;7.27;6.10;;;;;;;;;;5132247;27;20206;-49
2023/07/28 01:41:55;;;;;;;9.53;7.03;;;;;;;;;;5132530;27;20206;-50
2023/07/28 01:44:23;;;;;;;7.13;5.73;;;;;;;;;;5132177;27;20221;-50
2023/07/28 01:46:49;;;;;;;8.03;6.60;;;;;;;;;;5132258;27;20269;-49
2023/07/28 01:49:48;;;;;;;8.13;6.93;;;;;;;;;;5131805;27;20778;-50
2023/07/28 01:52:14;;;;;;;8.83;7.43;;;;;;;;;;5122214;27;20300;-49
2023/07/28 01:54:40;;;;;;;8.53;7.23;;;;;;;;;;5130163;27;20842;-50
2023/07/28 01:57:06;;;;;;;9.50;6.30;;;;;;;;;;5132023;27;20601;-50
2023/07/28 01:59:33;;;;;;;9.13;6.90;;;;;;;;;;5131975;27;20197;-50
2023/07/28 02:01:59;;;;;;;8.40;6.57;;;;;;;;;;5132035;27;20668;-50
2023/07/28 02:04:25;;;;;;;10.33;7.67;;;;;;;;;;5132088;27;20323;-50
2023/07/28 02:06:51;;;;;;;8.47;7.23;;;;;;;;;;5131777;27;20927;-50
2023/07/28 02:09:18;;;;;;;10.70;7.73;;;;;;;;;;5131774;27;20220;-50
2023/07/28 02:11:44;;;;;;;7.30;6.60;;;;;;;;;;5131953;27;20250;-50
2023/07/28 02:14:10;;;;;;;8.63;7.03;;;;;;;;;;5131784;27;20197;-50
2023/07/28 02:16:37;;;;;;;9.03;7.23;;;;;;;;;;5131865;27;20718;-50
2023/07/28 02:19:03;;;;;;;10.50;7.63;;;;;;;;;;5131490;27;20189;-50
2023/07/28 02:21:29;;;;;;;12.57;9.00;;;;;;;;;;5131753;27;20193;-50
2023/07/28 02:23:55;;;;;;;9.93;8.50;;;;;;;;;;5131646;27;20277;-50
2023/07/28 02:26:21;;;;;;;11.03;7.90;;;;;;;;;;5131576;28;20285;-50
2023/07/28 02:28:47;;;;;;;11.07;8.70;;;;;;;;;;5131520;27;20257;-50
2023/07/28 02:31:13;;;;;;;11.43;8.53;;;;;;;;;;5131486;27;20197;-50
2023/07/28 02:33:40;;;;;;;9.10;7.67;;;;;;;;;;5131444;27;20233;-50
2023/07/28 02:36:07;;;;;;;10.57;7.87;;;;;;;;;;5131683;28;20567;-50
2023/07/28 02:38:33;;;;;;;11.33;8.30;;;;;;;;;;5131407;28;20604;-50
2023/07/28 02:40:59;;;;;;;10.73;8.77;;;;;;;;;;5131579;28;20197;-49
2023/07/28 02:43:25;;;;;;;11.57;8.60;;;;;;;;;;5131505;28;20773;-50
2023/07/28 02:45:54;;;;;;;11.80;8.30;;;;;;;;;;5131293;27;20201;-50
2023/07/28 02:48:21;;;;;;;12.20;8.97;;;;;;;;;;5131583;27;20711;-49
2023/07/28 02:50:50;;;;;;;11.07;8.43;;;;;;;;;;5131300;27;20682;-49
2023/07/28 02:53:16;;;;;;;13.07;8.67;;;;;;;;;;5131132;28;20197;-49
2023/07/28 02:55:42;;;;;;;11.40;8.77;;;;;;;;;;5131286;27;20208;-49
2023/07/28 02:58:08;;;;;;;13.90;9.13;;;;;;;;;;5131271;27;20623;-49
2023/07/28 03:00:34;;;;;;;12.07;8.87;;;;;;;;;;5131374;28;20190;-49
2023/07/28 03:03:00;;;;;;;11.43;8.17;;;;;;;;;;5131209;27;20207;-49
2023/07/28 03:05:26;;;;;;;12.77;9.33;;;;;;;;;;5131424;27;20198;-49
2023/07/28 03:07:54;;;;;;;9.87;8.40;;;;;;;;;;5131210;28;20221;-49
2023/07/28 03:10:20;;;;;;;12.20;9.03;;;;;;;;;;5131447;27;20194;-50
2023/07/28 03:12:46;;;;;;;11.90;8.57;;;;;;;;;;5131238;28;20194;-50
2023/07/28 03:15:12;;;;;;;12.33;8.40;;;;;;;;;;5131254;27;20213;-50
2023/07/28 03:17:38;;;;;;;12.00;8.77;;;;;;;;;;5131139;28;20201;-49
2023/07/28 03:20:04;;;;;;;12.70;8.77;;;;;;;;;;5131131;28;20225;-50
2023/07/28 03:22:30;;;;;;;15.30;9.70;;;;;;;;;;5131244;28;20198;-49
2023/07/28 03:24:57;;;;;;;15.83;9.73;;;;;;;;;;5130849;27;20234;-50
2023/07/28 03:27:24;;;;;;;11.97;9.23;;;;;;;;;;5130965;28;20233;-49
2023/07/28 03:29:50;;;;;;;14.03;9.67;;;;;;;;;;5131329;27;20573;-50
2023/07/28 03:32:16;;;;;;;13.10;9.43;;;;;;;;;;5134325;27;20194;-49
2023/07/28 03:34:42;;;;;;;10.73;8.80;;;;;;;;;;5134883;27;20193;-50
2023/07/28 03:37:08;;;;;;;14.03;9.67;;;;;;;;;;5134677;27;20197;-50
2023/07/28 03:39:34;;;;;;;14.57;9.87;;;;;;;;;;5134454;27;20197;-50
2023/07/28 03:42:02;;;;;;;16.20;10.20;;;;;;;;;;5134570;27;20197;-49
2023/07/28 03:44:29;;;;;;;15.00;8.93;;;;;;;;;;5134534;27;20616;-49
2023/07/28 03:46:55;;;;;;;12.50;9.30;;;;;;;;;;5134736;27;20194;-50
2023/07/28 03:49:21;;;;;;;13.73;9.27;;;;;;;;;;5134365;27;20607;-50
2023/07/28 03:51:47;;;;;;;19.73;10.07;;;;;;;;;;5134232;27;20246;-50
2023/07/28 03:54:13;;;;;;;12.60;9.20;;;;;;;;;;5134444;27;20189;-49
2023/07/28 03:56:39;;;;;;;12.43;8.73;;;;;;;;;;5134157;27;20697;-49
2023/07/28 03:59:06;;;;;;;9.87;8.30;;;;;;;;;;5134159;27;20281;-49
2023/07/28 04:01:32;;;;;;;11.73;8.40;;;;;;;;;;5134258;27;20661;-49
2023/07/28 04:04:00;;;;;;;12.60;8.87;;;;;;;;;;5134071;27;20223;-50
2023/07/28 04:06:39;;;;;;;11.37;8.47;;;;;;;;;;5134317;27;20201;-49
2023/07/28 04:09:06;;;;;;;11.57;8.97;;;;;;;;;;5133937;27;20194;-50
2023/07/28 04:11:31;;;;;;;11.20;8.53;;;;;;;;;;5134067;27;20657;-50
2023/07/28 04:13:57;;;;;;;12.37;8.63;;;;;;;;;;5133807;27;20198;-50
2023/07/28 04:16:25;;;;;;;11.03;8.23;;;;;;;;;;5133247;27;20277;-50
2023/07/28 04:18:51;;;;;;;11.90;8.57;;;;;;;;;;5133788;27;20197;-50
2023/07/28 04:21:17;;;;;;;12.57;9.60;;;;;;;;;;5133671;27;20207;-50
2023/07/28 04:23:43;;;;;;;14.93;9.97;;;;;;;;;;5133798;27;20218;-50
2023/07/28 04:26:09;;;;;;;13.40;9.83;;;;;;;;;;5133568;27;20209;-50
2023/07/28 04:28:35;;;;;;;14.27;9.70;;;;;;;;;;5133703;27;20233;-51
2023/07/28 04:31:01;;;;;;;12.93;9.13;;;;;;;;;;5133442;27;20205;-50
2023/07/28 04:33:29;;;;;;;11.03;8.77;;;;;;;;;;5133637;27;20243;-50
2023/07/28 04:35:55;;;;;;;10.73;8.90;;;;;;;;;;5133583;27;20228;-50
2023/07/28 04:38:21;;;;;;;12.13;7.93;;;;;;;;;;5133358;27;20732;-50
2023/07/28 04:40:47;;;;;;;11.87;8.50;;;;;;;;;;5133763;27;20201;-50
2023/07/28 04:43:13;;;;;;;9.80;8.63;;;;;;;;;;5133526;27;20293;-49
2023/07/28 04:45:39;;;;;;;15.07;9.67;;;;;;;;;;5133199;27;20569;-50
2023/07/28 04:48:05;;;;;;;9.93;8.37;;;;;;;;;;5133259;27;20251;-50
2023/07/28 04:50:33;;;;;;;13.27;9.83;;;;;;;;;;5133070;27;20676;-50
2023/07/28 04:53:00;;;;;;;10.77;8.87;;;;;;;;;;5133202;27;20211;-50
2023/07/28 04:55:26;;;;;;;14.00;9.87;;;;;;;;;;5133340;27;20285;-50
2023/07/28 04:57:52;;;;;;;19.23;11.63;;;;;;;;;;5132997;27;20201;-50
2023/07/28 05:00:19;;;;;;;12.93;10.07;;;;;;;;;;5133103;27;20289;-50
2023/07/28 05:02:45;;;;;;;13.47;10.53;;;;;;;;;;5133040;27;20197;-50
2023/07/28 05:05:11;;;;;;;14.43;10.37;;;;;;;;;;5132928;27;20786;-50
2023/07/28 05:07:38;;;;;;;14.90;10.13;;;;;;;;;;5132811;27;20246;-50
2023/07/28 05:10:04;;;;;;;14.27;9.73;;;;;;;;;;5132520;27;20212;-50
2023/07/28 05:12:30;;;;;;;15.77;10.57;;;;;;;;;;5132630;27;20607;-49
2023/07/28 05:14:56;;;;;;;14.20;10.77;;;;;;;;;;5132825;27;20194;-50
2023/07/28 05:17:22;;;;;;;13.37;10.03;;;;;;;;;;5132701;27;20201;-50
2023/07/28 05:19:49;;;;;;;12.33;9.67;;;;;;;;;;5132794;27;20195;-50
2023/07/28 05:22:15;;;;;;;15.97;10.83;;;;;;;;;;5132526;27;20195;-50
2023/07/28 05:24:44;;;;;;;15.37;10.93;;;;;;;;;;5132451;27;20255;-50
2023/07/28 05:27:10;;;;;;;17.27;11.03;;;;;;;;;;5132726;27;20281;-49
2023/07/28 05:29:36;;;;;;;16.53;11.60;;;;;;;;;;5132471;27;20276;-50
2023/07/28 05:32:02;;;;;;;16.43;12.20;;;;;;;;;;5132316;27;20640;-50
2023/07/28 05:34:28;;;;;;;15.33;11.00;;;;;;;;;;5132306;27;20233;-50
2023/07/28 05:36:54;;;;;;;15.57;11.70;;;;;;;;;;5132433;27;20196;-50
2023/07/28 05:39:20;;;;;;;13.60;11.83;;;;;;;;;;5132218;27;20210;-50
2023/07/28 05:41:48;;;;;;;13.77;10.77;;;;;;;;;;5132349;27;20243;-50
2023/07/28 05:44:14;;;;;;;13.03;11.00;;;;;;;;;;5131898;27;20653;-50
2023/07/28 05:46:40;;;;;;;14.40;11.43;;;;;;;;;;5132029;27;20721;-50
2023/07/28 05:49:06;;;;;;;13.83;11.27;;;;;;;;;;5132027;27;20293;-50
2023/07/28 05:51:32;;;;;;;15.93;11.53;;;;;;;;;;5131968;27;20672;-50
2023/07/28 05:53:58;;;;;;;17.10;11.07;;;;;;;;;;5131825;27;20684;-49
2023/07/28 05:56:24;;;;;;;11.43;10.20;;;;;;;;;;5131902;27;20193;-51
2023/07/28 05:58:51;;;;;;;13.03;10.43;;;;;;;;;;5132124;27;20240;-50
2023/07/28 06:01:18;;;;;;;13.60;10.60;;;;;;;;;;5131993;27;20197;-50
2023/07/28 06:03:44;;;;;;;13.10;10.07;;;;;;;;;;5131856;27;20226;-50
2023/07/28 06:06:10;;;;;;;11.90;9.90;;;;;;;;;;5131920;27;20202;-50
2023/07/28 06:08:37;;;;;;;13.77;9.73;;;;;;;;;;5131819;27;20190;-50
2023/07/28 06:11:05;;;;;;;11.20;9.37;;;;;;;;;;5131722;27;20195;-50
2023/07/28 06:13:31;;;;;;;9.60;8.60;;;;;;;;;;5131748;27;20196;-50
2023/07/28 06:15:59;;;;;;;12.50;9.30;;;;;;;;;;5131663;27;20203;-50
2023/07/28 06:18:25;;;;;;;8.67;7.50;;;;;;;;;;5131827;27;20206;-50
2023/07/28 06:20:51;;;;;;;9.93;8.63;;;;;;;;;;5131720;27;20546;-50
2023/07/28 06:23:17;;;;;;;9.13;8.00;;;;;;;;;;5131569;27;20250;-50
2023/07/28 06:25:45;;;;;;;10.87;8.43;;;;;;;;;;5131775;27;20222;-50
2023/07/28 06:28:11;;;;;;;8.77;7.87;;;;;;;;;;5131692;27;20199;-50
2023/07/28 06:30:37;;;;;;;8.53;7.70;;;;;;;;;;5131649;28;20288;-49
2023/07/28 06:33:06;;;;;;;8.37;7.47;;;;;;;;;;5131480;27;20240;-50
2023/07/28 06:35:32;;;;;;;10.23;8.00;;;;;;;;;;5131266;27;20220;-49
2023/07/28 06:37:58;;;;;;;11.70;7.83;;;;;;;;;;5131531;28;20574;-49
2023/07/28 06:40:24;;;;;;;8.40;7.60;;;;;;;;;;5131546;28;20651;-49
2023/07/28 06:42:51;;;;;;;9.90;7.43;;;;;;;;;;5131494;28;20300;-50
2023/07/28 06:45:17;;;;;;;9.00;7.67;;;;;;;;;;5131331;27;20705;-50
2023/07/28 06:47:43;;;;;;;9.63;7.40;;;;;;;;;;5131514;28;20205;-50
2023/07/28 06:50:11;;;;;;;8.67;7.47;;;;;;;;;;5131539;27;20198;-49
2023/07/28 06:52:37;;;;;;;8.10;7.30;;;;;;;;;;5131376;28;20205;-50
2023/07/28 06:55:03;;;;;;;9.93;7.47;;;;;;;;;;5131290;28;20240;-49
2023/07/28 06:57:30;;;;;;;7.13;6.43;;;;;;;;;;5131466;27;20192;-49
2023/07/28 06:59:56;;;;;;;8.00;6.17;;;;;;;;;;5131254;27;20659;-49
2023/07/28 07:02:22;;;;;;;7.87;7.00;;;;;;;;;;5131182;28;20220;-49
2023/07/28 07:04:49;;;;;;;7.60;6.13;;;;;;;;;;5131531;27;20232;-48
2023/07/28 07:07:16;;;;;;;7.13;6.43;;;;;;;;;;5134958;27;20198;-49
2023/07/28 07:09:42;;;;;;;7.20;6.50;;;;;;;;;;5135412;27;20262;-49
2023/07/28 07:12:08;;;;;;;9.00;7.83;;;;;;;;;;5135336;27;20218;-49
2023/07/28 07:14:34;;;;;;;7.80;7.10;;;;;;;;;;5135020;27;20199;-49
2023/07/28 07:17:01;;;;;;;7.30;6.70;;;;;;;;;;5134979;27;20213;-49
2023/07/28 07:19:28;;;;;;;8.33;7.57;;;;;;;;;;5135136;27;20214;-49
2023/07/28 07:21:53;;;;;;;7.23;6.53;;;;;;;;;;5134941;27;20203;-49
2023/07/28 07:24:21;;;;;;;8.37;7.57;;;;;;;;;;5134782;27;20231;-48
2023/07/28 07:26:47;;;;;;;7.63;6.90;;;;;;;;;;5134746;27;20288;-49
2023/07/28 07:29:13;;;;;;;7.87;7.10;;;;;;;;;;5134925;27;20713;-49
2023/07/28 07:31:39;;;;;;;8.80;7.70;;;;;;;;;;5134927;27;20202;-49
2023/07/28 07:34:05;;;;;;;8.90;7.97;;;;;;;;;;5134430;27;20242;-49
2023/07/28 07:36:32;;;;;;;8.30;7.60;;;;;;;;;;5134332;27;20689;-49
2023/07/28 07:38:58;;;;;;;9.30;8.47;;;;;;;;;;5134664;27;20201;-50
2023/07/28 07:41:25;;;;;;;9.23;7.93;;;;;;;;;;5134625;27;20657;-50
2023/07/28 07:43:53;;;;;;;9.47;8.60;;;;;;;;;;5134533;27;20262;-50
2023/07/28 07:46:19;;;;;;;9.00;8.10;;;;;;;;;;5134386;27;20670;-51
2023/07/28 07:48:45;;;;;;;8.10;7.30;;;;;;;;;;5134573;27;20196;-52
2023/07/28 07:51:11;;;;;;;8.93;8.10;;;;;;;;;;5134419;27;20200;-52
2023/07/28 07:53:37;;;;;;;8.77;7.97;;;;;;;;;;5134097;27;20189;-52
2023/07/28 07:56:04;;;;;;;9.60;8.60;;;;;;;;;;5134211;27;20203;-52
2023/07/28 07:58:31;;;;;;;8.90;7.63;;;;;;;;;;5134359;27;20227;-51
2023/07/28 08:00:57;;;;;;;8.27;7.47;;;;;;;;;;5134331;27;20669;-52
2023/07/28 08:03:24;;;;;;;8.47;7.60;;;;;;;;;;5134034;27;20184;-52
2023/07/28 08:05:50;;;;;;;7.87;7.17;;;;;;;;;;5134255;27;20207;-52
2023/07/28 08:08:17;;;;;;;8.77;7.53;;;;;;;;;;5133966;27;20286;-52
2023/07/28 08:10:43;;;;;;;7.87;7.20;;;;;;;;;;5133953;27;20206;-52
2023/07/28 08:13:09;;;;;;;8.13;7.33;;;;;;;;;;5133903;27;20196;-52
2023/07/28 08:15:37;;;;;;;8.13;7.40;;;;;;;;;;5133785;27;20293;-52
2023/07/28 08:18:03;;;;;;;8.40;7.07;;;;;;;;;;5133591;27;20228;-52
2023/07/28 08:20:29;;;;;;;7.67;7.07;;;;;;;;;;5133517;27;20193;-52
2023/07/28 08:22:55;;;;;;;7.37;6.77;;;;;;;;;;5134064;27;20242;-53
2023/07/28 08:25:23;;;;;;;6.93;6.23;;;;;;;;;;5133588;27;20707;-52
2023/07/28 08:27:49;;;;;;;7.30;6.13;;;;;;;;;;5133706;27;20773;-52
2023/07/28 08:30:15;;;;;;;6.57;5.93;;;;;;;;;;5133656;27;20201;-52
2023/07/28 08:32:43;;;;;;;7.80;6.80;;;;;;;;;;5133115;27;20237;-52
2023/07/28 08:35:09;;;;;;;6.90;6.30;;;;;;;;;;5133615;27;20205;-52
2023/07/28 08:37:35;;;;;;;6.70;6.10;;;;;;;;;;5133610;27;20280;-52
2023/07/28 08:40:01;;;;;;;6.77;6.17;;;;;;;;;;5133418;27;20206;-52
2023/07/28 08:42:29;;;;;;;6.50;5.70;;;;;;;;;;5133614;27;20564;-52
2023/07/28 08:44:55;;;;;;;6.00;5.40;;;;;;;;;;5133416;27;20226;-52
2023/07/28 08:47:21;;;;;;;7.17;5.60;;;;;;;;;;5133086;27;20208;-52
2023/07/28 08:49:49;;;;;;;6.67;5.57;;;;;;;;;;5129581;27;20189;-52
2023/07/28 08:52:16;;;;;;;5.93;5.43;;;;;;;;;;5133213;27;20799;-52
2023/07/28 08:54:42;;;;;;;5.60;5.10;;;;;;;;;;5132013;27;20201;-52
2023/07/28 08:57:09;;;;;;;5.33;4.77;;;;;;;;;;5132944;27;20513;-52
2023/07/28 08:59:36;;;;;;;5.27;4.77;;;;;;;;;;5133237;27;20223;-52
2023/07/28 09:02:04;;;;;;;5.43;4.93;;;;;;;;;;5131093;27;20201;-52
2023/07/28 09:04:30;;;;;;;4.93;4.30;;;;;;;;;;5132846;27;20229;-52
2023/07/28 09:06:57;;;;;;;5.27;4.43;;;;;;;;;;5133066;27;20222;-50
2023/07/28 09:09:23;;;;;;;5.10;4.60;;;;;;;;;;5133014;27;20194;-51
2023/07/28 09:11:51;;;;;;;5.07;4.57;;;;;;;;;;5132804;27;20490;-49
2023/07/28 09:14:19;;;;;;;4.40;4.00;;;;;;;;;;5132578;27;20272;-50
2023/07/28 09:16:45;;;;;;;3.93;3.63;;;;;;;;;;5132934;27;20201;-56
2023/07/28 09:19:11;;;;;;;4.90;4.30;;;;;;;;;;5132757;27;20197;-52
2023/07/28 09:21:38;;;;;;;5.70;4.60;;;;;;;;;;5132626;27;20197;-54
2023/07/28 09:24:06;;;;;;;5.17;4.00;;;;;;;;;;5132705;27;20226;-54
2023/07/28 09:26:38;;;;;;;5.03;4.60;;;;;;;;;;5132350;27;20561;-53
2023/07/28 09:29:11;;;;;;;4.07;3.70;;;;;;;;;;5131790;27;20193;-53
2023/07/28 09:31:38;;;;;;;4.40;4.00;;;;;;;;;;5132289;27;20194;-53
2023/07/28 09:34:05;;;;;;;4.03;3.70;;;;;;;;;;5132163;27;20813;-52
2023/07/28 09:36:31;;;;;;;4.90;3.53;;;;;;;;;;5132220;27;20228;-53
2023/07/28 09:38:59;;;;;;;4.10;3.80;;;;;;;;;;5132421;27;20217;-53
2023/07/28 09:41:26;;;;;;;5.17;4.77;;;;;;;;;;5129984;27;20281;-53
2023/07/28 09:43:53;;;;;;;5.00;4.40;;;;;;;;;;5130802;27;20217;-53
2023/07/28 09:46:20;;;;;;;4.23;3.90;;;;;;;;;;5131945;27;21161;-53
2023/07/28 09:48:48;;;;;;;5.73;3.57;;;;;;;;;;5131924;27;20205;-53
2023/07/28 09:51:17;;;;;;;3.40;3.10;;;;;;;;;;5131859;27;20205;-53
2023/07/28 09:53:46;;;;;;;3.73;2.80;;;;;;;;;;5130237;27;20194;-53
2023/07/28 09:56:16;;;;;;;4.77;2.77;;;;;;;;;;5131377;27;20220;-53
2023/07/28 09:58:49;;;;;;;3.03;2.77;;;;;;;;;;5131841;27;20202;-53
2023/07/28 10:01:15;;;;;;;3.13;2.60;;;;;;;;;;5131322;27;20739;-53
2023/07/28 10:03:41;;;;;;;2.83;2.63;;;;;;;;;;5131656;27;20802;-53
2023/07/28 10:06:08;;;;;;;2.83;2.50;;;;;;;;;;5131296;27;20690;-53
2023/07/28 10:08:34;;;;;;;2.50;2.30;;;;;;;;;;5131243;27;20910;-53
2023/07/28 10:11:00;;;;;;;3.40;2.40;;;;;;;;;;5131416;27;20674;-53
2023/07/28 10:13:28;;;;;;;2.60;1.90;;;;;;;;;;5131616;27;20606;-53
2023/07/28 10:15:55;;;;;;;2.90;2.40;;;;;;;;;;5131441;27;20206;-53
2023/07/28 10:18:22;;;;;;;2.50;2.20;;;;;;;;;;5131160;27;20554;-53
2023/07/28 10:20:49;;;;;;;3.43;2.97;;;;;;;;;;5131520;27;20196;-53
2023/07/28 10:23:16;;;;;;;2.40;2.20;;;;;;;;;;5131292;27;20289;-53
2023/07/28 10:25:43;;;;;;;2.53;2.33;;;;;;;;;;5131480;27;20242;-54
2023/07/28 10:28:24;;;;;;;2.13;1.93;;;;;;;;;;5131127;28;20200;-53
2023/07/28 10:30:52;;;;;;;4.20;2.43;;;;;;;;;;5131581;27;20194;-54
2023/07/28 10:33:27;;;;;;;2.40;2.20;;;;;;;;;;5130979;28;20322;-53
2023/07/28 10:35:54;;;;;;;2.57;2.20;;;;;;;;;;5130592;28;20688;-53
2023/07/28 10:38:30;;;;;;;3.77;2.40;;;;;;;;;;5130730;28;20280;-54
2023/07/28 10:41:05;;;;;;;4.43;2.20;;;;;;;;;;5134999;27;20283;-53
2023/07/28 10:43:31;;;;;;;4.57;2.70;;;;;;;;;;5135023;27;20196;-54
2023/07/28 10:45:57;;;;;;;18.10;16.37;;;;;;;;;;5135403;27;20217;-54
2023/07/28 10:48:23;;;;;;;3.80;2.27;;;;;;;;;;5135111;27;20189;-53
2023/07/28 10:50:51;;;;;;;2.60;1.93;;;;;;;;;;5135375;27;20291;-53
2023/07/28 10:53:17;;;;;;;3.23;2.07;;;;;;;;;;5134838;27;20209;-54
2023/07/28 10:55:44;;;;;;;2.67;2.30;;;;;;;;;;5135154;27;20194;-54
2023/07/28 10:58:10;;;;;;;3.80;2.50;;;;;;;;;;5135356;27;20197;-54
2023/07/28 11:00:36;;;;;;;3.57;2.13;;;;;;;;;;5134733;27;20620;-53
2023/07/28 11:03:02;;;;;;;2.20;2.00;;;;;;;;;;5134931;27;20240;-53
2023/07/28 11:05:29;;;;;;;3.60;2.60;;;;;;;;;;5134887;27;20372;-54
2023/07/28 11:07:57;;;;;;;2.83;2.30;;;;;;;;;;5135053;27;20193;-54
2023/07/28 11:10:24;;;;;;;3.60;2.63;;;;;;;;;;5134595;27;20200;-54
2023/07/28 11:12:51;;;;;;;3.03;2.50;;;;;;;;;;5134742;27;20193;-52
2023/07/28 11:15:17;;;;;;;2.83;2.60;;;;;;;;;;5134538;27;20194;-53
2023/07/28 11:17:45;;;;;;;2.83;2.30;;;;;;;;;;5134576;27;20646;-54
2023/07/28 11:20:17;;;;;;;2.47;2.20;;;;;;;;;;5134639;27;20222;-53
2023/07/28 11:22:44;;;;;;;3.17;2.43;;;;;;;;;;5134509;27;20642;-54
2023/07/28 11:25:11;;;;;;;2.63;2.43;;;;;;;;;;5134508;27;20238;-53
2023/07/28 11:27:38;;;;;;;3.53;2.10;;;;;;;;;;5134632;27;20197;-53
2023/07/28 11:30:05;;;;;;;2.30;2.10;;;;;;;;;;5134641;27;20340;-53
2023/07/28 11:32:31;;;;;;;2.50;2.30;;;;;;;;;;5134352;27;20256;-53
2023/07/28 11:35:03;;;;;;;2.33;2.13;;;;;;;;;;5134272;27;20196;-53
2023/07/28 11:37:29;;;;;;;5.00;2.60;;;;;;;;;;5134054;27;20671;-54
2023/07/28 11:39:56;;;;;;;2.63;2.37;;;;;;;;;;5134194;27;20543;-54
2023/07/28 11:42:23;;;;;;;2.23;2.10;;;;;;;;;;5133978;27;20197;-53
2023/07/28 11:44:49;;;;;;;2.97;2.17;;;;;;;;;;5133848;27;20281;-53
2023/07/28 11:47:18;;;;;;;3.00;2.03;;;;;;;;;;5134082;27;20201;-53
2023/07/28 11:49:46;;;;;;;2.30;2.10;;;;;;;;;;5133887;27;20631;-53
2023/07/28 11:52:12;;;;;;;2.73;2.40;;;;;;;;;;5133387;27;20203;-54
2023/07/28 11:54:38;;;;;;;3.37;2.40;;;;;;;;;;5133680;27;20192;-53
2023/07/28 11:57:07;;;;;;;4.50;2.33;;;;;;;;;;5133869;27;20250;-53
2023/07/28 11:59:35;;;;;;;3.10;2.17;;;;;;;;;;5133934;27;20182;-53
2023/07/28 12:02:02;;;;;;;3.23;1.97;;;;;;;;;;5133673;27;20220;-53
2023/07/28 12:04:28;;;;;;;2.60;2.40;;;;;;;;;;5133640;27;20236;-54
2023/07/28 12:07:02;;;;;;;3.77;2.13;;;;;;;;;;5133747;27;20206;-54
2023/07/28 12:09:28;;;;;;;3.67;2.10;;;;;;;;;;5133777;27;20734;-54
2023/07/28 12:11:54;;;;;;;3.03;2.10;;;;;;;;;;5133946;27;20660;-53
2023/07/28 12:14:30;;;;;;;2.93;2.10;;;;;;;;;;5133652;27;20200;-53
2023/07/28 12:16:58;;;;;;;3.10;2.00;;;;;;;;;;5133797;27;20710;-53
2023/07/28 12:19:24;;;;;;;2.40;2.00;;;;;;;;;;5133722;27;20205;-53
2023/07/28 12:21:50;;;;;;;3.73;2.00;;;;;;;;;;5133602;27;20569;-53
2023/07/28 12:24:16;;;;;;;2.30;2.10;;;;;;;;;;5133257;27;20231;-53
2023/07/28 12:26:42;;;;;;;2.40;2.20;;;;;;;;;;5133622;27;20189;-52
2023/07/28 12:29:08;;;;;;;2.90;2.30;;;;;;;;;;5133675;27;20201;-55
2023/07/28 12:31:34;;;;;;;3.57;2.30;;;;;;;;;;5133209;27;20792;-53
2023/07/28 12:34:01;;;;;;;2.50;2.20;;;;;;;;;;5133425;27;20233;-55
2023/07/28 12:36:27;;;;;;;2.33;2.10;;;;;;;;;;5133395;27;20206;-54
2023/07/28 12:38:53;;;;;;;3.63;1.90;;;;;;;;;;5133293;27;20190;-54
2023/07/28 12:41:20;;;;;;;2.40;2.20;;;;;;;;;;5131286;27;20845;-55
2023/07/28 12:43:46;;;;;;;2.30;2.10;;;;;;;;;;5130708;27;20197;-53
2023/07/28 12:46:12;;;;;;;2.97;2.13;;;;;;;;;;5128545;27;20196;-54
2023/07/28 12:48:38;;;;;;;2.30;2.10;;;;;;;;;;5130074;27;20691;-54
2023/07/28 12:51:05;;;;;;;2.40;2.20;;;;;;;;;;5130558;27;20221;-53
2023/07/28 12:53:31;;;;;;;2.40;2.20;;;;;;;;;;5132463;27;20204;-54
2023/07/28 12:55:57;;;;;;;2.20;2.00;;;;;;;;;;5133273;27;20195;-54
2023/07/28 12:58:23;;;;;;;2.53;2.23;;;;;;;;;;5132648;27;20201;-54
2023/07/28 13:00:49;;;;;;;2.17;1.97;;;;;;;;;;5133248;27;20295;-53
2023/07/28 13:03:15;;;;;;;2.03;1.83;;;;;;;;;;5131799;27;20286;-53
2023/07/28 13:05:46;;;;;;;2.37;1.97;;;;;;;;;;5133107;27;20313;-53
2023/07/28 13:08:14;;;;;;;1.80;1.70;;;;;;;;;;5133065;27;20203;-54
2023/07/28 13:10:40;;;;;;;4.47;2.10;;;;;;;;;;5132535;27;20200;-53
2023/07/28 13:13:06;;;;;;;1.93;1.80;;;;;;;;;;5132673;27;20674;-54
2023/07/28 13:15:32;;;;;;;1.80;1.70;;;;;;;;;;5132468;27;20191;-53
2023/07/28 13:17:58;;;;;;;2.23;1.97;;;;;;;;;;5132687;27;20199;-54
2023/07/28 13:20:24;;;;;;;2.17;1.93;;;;;;;;;;5132355;27;20732;-55
2023/07/28 13:22:50;;;;;;;2.20;2.00;;;;;;;;;;5132438;27;20242;-54
2023/07/28 13:25:17;;;;;;;2.13;1.93;;;;;;;;;;5132362;27;20270;-54
2023/07/28 13:27:43;;;;;;;2.23;1.80;;;;;;;;;;5132361;27;20254;-55
2023/07/28 13:30:10;;;;;;;2.40;2.00;;;;;;;;;;5132440;27;20197;-54
2023/07/28 13:32:36;;;;;;;3.53;2.00;;;;;;;;;;5132094;27;20268;-54
2023/07/28 13:35:02;;;;;;;2.20;2.00;;;;;;;;;;5132104;27;20234;-54
2023/07/28 13:37:28;;;;;;;3.23;3.03;;;;;;;;;;5131753;27;20653;-53
2023/07/28 13:39:54;;;;;;;2.47;2.00;;;;;;;;;;5131991;27;20669;-53
2023/07/28 13:42:21;;;;;;;1.73;1.63;;;;;;;;;;5131347;27;20191;-54
2023/07/28 13:44:47;;;;;;;2.13;1.90;;;;;;;;;;5132005;27;20243;-54
2023/07/28 13:47:13;;;;;;;2.00;1.80;;;;;;;;;;5131872;27;20613;-54
2023/07/28 13:49:39;;;;;;;2.30;2.10;;;;;;;;;;5131771;27;20285;-54
2023/07/28 13:52:06;;;;;;;2.13;1.93;;;;;;;;;;5131744;27;20195;-54
2023/07/28 13:54:32;;;;;;;2.73;2.00;;;;;;;;;;5131654;27;20577;-54
2023/07/28 13:56:58;;;;;;;2.70;1.80;;;;;;;;;;5131994;27;20206;-53
2023/07/28 13:59:25;;;;;;;2.73;2.00;;;;;;;;;;5131317;27;20199;-54
2023/07/28 14:01:52;;;;;;;2.20;2.00;;;;;;;;;;5131489;27;20206;-53
2023/07/28 14:04:18;;;;;;;2.10;1.90;;;;;;;;;;5131293;27;20630;-53
2023/07/28 14:06:44;;;;;;;5.03;2.23;;;;;;;;;;5131544;27;20194;-53
2023/07/28 14:09:10;;;;;;;3.33;2.37;;;;;;;;;;5132052;27;20262;-53
2023/07/28 14:11:36;;;;;;;3.60;2.27;;;;;;;;;;5131202;27;20194;-54
2023/07/28 14:14:02;;;;;;;2.67;2.47;;;;;;;;;;5131548;27;20292;-54
2023/07/28 14:16:30;;;;;;;2.60;2.40;;;;;;;;;;5131499;27;20649;-54
2023/07/28 14:18:56;;;;;;;6.20;5.53;;;;;;;;;;5131801;27;20205;-53
2023/07/28 14:21:22;;;;;;;2.97;2.70;;;;;;;;;;5131409;27;20192;-54
2023/07/28 14:23:48;;;;;;;3.67;2.90;;;;;;;;;;5131247;27;20275;-53
2023/07/28 14:26:14;;;;;;;3.80;3.17;;;;;;;;;;5129811;27;20699;-53
2023/07/28 14:28:40;;;;;;;3.70;2.90;;;;;;;;;;5131326;27;20661;-53
2023/07/28 14:31:06;;;;;;;2.93;2.60;;;;;;;;;;5131569;28;20284;-53
2023/07/28 14:33:34;;;;;;;4.03;2.73;;;;;;;;;;5130902;27;20273;-53
2023/07/28 14:36:01;;;;;;;2.70;2.30;;;;;;;;;;5131188;27;20226;-53